Terminal Aerodrome Forecast
Issued by NWS

Home | Current Version | Previous Version | Text Only | Print | Product List | Glossary On
Versions: 1 2 3 4 5 6 7 8 9 10 11 12 13 14
000
FTUS44 KJAN 220246 AAA
TAFHKS
TAF AMD
KHKS 220246Z 2203/2224 21015G25KT 3SM TSRAGS BR BKN035CB OVC060
     FM220430 20008KT 5SM -TSRA BR BKN035CB
     FM220700 19007KT P6SM -RA OVC015
     FM221200 18007KT P6SM -SHRA OVC050
     FM221800 23014G21KT P6SM BKN050=

USA.gov is the U.S. government's official web portal to all federal, state and local government web resources and services.